Lake, Michigan
Current Conditions -  °F | °C
As of 2:38 AM on Saturday 25 Oct 2014 (Local Time) from KMOP Reporting Station
Haze Haze  
Wind Chill:   Ceiling: Unl
Heat Index:   Visibility: 3mi
Dew Point:   Wind: 0mph
Humidity: 97%   Direction: NA
Pressure: 29.86"   Gusts: NA
Location:  43.85°N, 85.01°W
Report Text: KMOP 250638Z AUTO 00000KT 3SM BR SCT095 06/06 A2986 RMK AO2 T00590055
Loading
Personal Weather Stations






























Interactive Weather Map
Tropical Storm Tracking
New forecast layout! Learn more

10-Day Weather Forecast

Advertisements
Track Severe Weather on mobile